Astur — CURM5 — position and weather

sailwx.info

Track history (hours):
 
Tides and Currents Weather Stations Pressure Air Temp Water Temp Dewpoint Dewpoint Depression Visibility Wind Speed Wind Dir Waves Ship Positions

Astur

Last reported at 2018-Jun-22 22:13 UTC. Time now 2018-Jun-25 05:33 UTC.
Position N 36°59' W 008°57'.

Length 21 m.

Type: Ship. MMSI: 263275000.

Date/timePositionNaut miles runAvg speedWind from/ knotsBaromVisibWave heightAir tempDewpointWater temp
2018-Jun-22 22:13N 36°59' W 008°57'2 6.9
2018-Jun-22 21:56N 37°01' W 008°55'0 0.3
2018-Jun-22 21:01N 37°01' W 008°56'0 0.5
2018-Jun-22 20:31N 37°00' W 008°55'0 8.3
2018-Jun-22 20:30N 37°00' W 008°56'1 0.0
2018-Jun-21 23:07N 37°01' W 008°55'0 2.0
2018-Jun-21 23:00N 37°01' W 008°56'0 0.0
2018-Jun-21 22:22N 37°01' W 008°56'0 0.0
2018-Jun-21 21:53N 37°01' W 008°56'0 0.0
2018-Jun-21 21:30N 37°01' W 008°56'0 0.0
2018-Jun-21 20:40N 37°01' W 008°56'0 0.0
2018-Jun-21 20:19N 37°01' W 008°56'0 0.0
2018-Jun-21 19:45N 37°01' W 008°56'10 0.7
2018-Jun-21 05:01N 36°58' W 009°08'0 3.1
2018-Jun-21 05:00N 36°58' W 009°08'2 2.9
2018-Jun-21 04:12N 36°56' W 009°08'  
2018-Jun-17 19:02N 37°01' W 008°56'0 0.3
2018-Jun-17 18:36N 37°01' W 008°56'0 0.0
2018-Jun-17 15:09N 37°01' W 008°56'0 0.0
2018-Jun-17 14:48N 37°01' W 008°56'0 0.0
2018-Jun-17 14:29N 37°01' W 008°56'0 0.0
2018-Jun-17 13:58N 37°01' W 008°56'0 0.0
2018-Jun-17 13:23N 37°01' W 008°56'0 0.0
2018-Jun-17 13:00N 37°01' W 008°56'0 0.0
2018-Jun-17 11:35N 37°01' W 008°56'0 0.0
2018-Jun-17 11:23N 37°01' W 008°56'0 0.0
2018-Jun-17 10:50N 37°01' W 008°56'0 0.8
2018-Jun-17 10:20N 37°00' W 008°55'3 8.4
2018-Jun-17 10:00N 36°58' W 008°58'4 8.3
2018-Jun-17 09:31N 36°55' W 009°01'5 0.6
2018-Jun-17 00:54N 36°55' W 009°08'23 1.9
2018-Jun-16 12:31N 36°48' W 008°40'0 2.9
2018-Jun-16 12:27N 36°48' W 008°41'1 2.9
2018-Jun-16 11:58N 36°48' W 008°42'2 0.2
2018-Jun-16 03:07N 36°47' W 008°44'1 2.8
2018-Jun-16 02:45N 36°47' W 008°45'1 2.9
2018-Jun-16 02:28N 36°47' W 008°46'9 2.9
2018-Jun-15 23:33N 36°47' W 008°57'0 2.9
2018-Jun-15 23:24N 36°46' W 008°57'1 0.2
2018-Jun-15 19:43N 36°47' W 008°56'1 2.8
2018-Jun-15 19:25N 36°47' W 008°55'1 2.9
2018-Jun-15 19:00N 36°47' W 008°54'1 2.9
2018-Jun-15 18:29N 36°48' W 008°52'1 2.8
2018-Jun-15 17:58N 36°48' W 008°50'2 2.8
2018-Jun-15 17:19N 36°47' W 008°48'1 2.8
2018-Jun-15 16:52N 36°47' W 008°46'2 2.8
2018-Jun-15 16:20N 36°47' W 008°45'4 1.8
2018-Jun-15 14:20N 36°47' W 008°40'3 2.8
2018-Jun-15 13:18N 36°47' W 008°44'1 3.0
2018-Jun-15 12:58N 36°47' W 008°45'1 2.9
2018-Jun-15 12:28N 36°47' W 008°47'18 1.4
2018-Jun-14 23:16N 36°52' W 009°08'1 2.7
2018-Jun-14 22:58N 36°51' W 009°08'1 2.8
2018-Jun-14 22:30N 36°50' W 009°09'29 2.9
2018-Jun-14 12:37N 36°60' W 008°34'2 8.5
2018-Jun-14 12:26N 37°01' W 008°34'4 8.5
2018-Jun-14 12:00N 37°05' W 008°32'3 6.9
2018-Jun-14 11:30N 37°08' W 008°32'0 0.2
2018-Jun-14 11:00N 37°08' W 008°32'0 0.0
2018-Jun-14 10:23N 37°08' W 008°32'0 0.0
2018-Jun-14 09:59N 37°08' W 008°32'0 0.0
2018-Jun-14 09:26N 37°08' W 008°32'0 0.0
2018-Jun-14 09:00N 37°08' W 008°32'0 0.0
2018-Jun-14 08:30N 37°08' W 008°32'0 0.0
2018-Jun-14 08:00N 37°08' W 008°32'0 0.0
2018-Jun-14 07:30N 37°08' W 008°32'0 0.0
2018-Jun-14 07:00N 37°08' W 008°32'0 0.0
2018-Jun-14 06:30N 37°08' W 008°32'0 0.0
2018-Jun-14 06:00N 37°08' W 008°32'0 0.0
2018-Jun-14 05:30N 37°08' W 008°32'0 0.0
2018-Jun-14 05:00N 37°08' W 008°32'0 0.0
2018-Jun-14 04:30N 37°08' W 008°32'0 0.0
2018-Jun-14 04:00N 37°08' W 008°32'0 0.0
2018-Jun-14 03:30N 37°08' W 008°32'0 0.0
2018-Jun-14 03:00N 37°08' W 008°32'0 0.0
2018-Jun-14 02:30N 37°08' W 008°32'0 0.0
2018-Jun-14 01:59N 37°08' W 008°32'0 0.0
2018-Jun-14 01:30N 37°08' W 008°32'0 0.0
2018-Jun-14 01:00N 37°08' W 008°32'0 0.0
2018-Jun-14 00:30N 37°08' W 008°32'0 0.0
2018-Jun-14 00:00N 37°08' W 008°32'0 0.0
2018-Jun-13 23:30N 37°08' W 008°32'0 0.0
2018-Jun-13 23:00N 37°08' W 008°32'0 0.0
2018-Jun-13 22:30N 37°08' W 008°32'0 0.0
2018-Jun-13 22:01N 37°08' W 008°32'0 0.0
2018-Jun-13 21:30N 37°08' W 008°32'0 0.0
2018-Jun-13 21:00N 37°08' W 008°32'0 0.0
2018-Jun-13 20:30N 37°08' W 008°32'0 0.0
2018-Jun-13 20:00N 37°08' W 008°32'0 0.0
2018-Jun-13 19:30N 37°08' W 008°32'0 0.0
2018-Jun-13 19:00N 37°08' W 008°32'0 0.0
2018-Jun-13 18:31N 37°08' W 008°32'0 0.0
2018-Jun-13 18:00N 37°08' W 008°32'0 0.0
2018-Jun-13 17:30N 37°08' W 008°32'0 0.0
2018-Jun-13 17:00N 37°08' W 008°32'0 0.0
2018-Jun-13 16:30N 37°08' W 008°32'0 0.0
2018-Jun-13 16:00N 37°08' W 008°32'0 0.0
2018-Jun-13 15:30N 37°08' W 008°32'0 0.0
2018-Jun-13 15:00N 37°08' W 008°32'0 0.0
2018-Jun-13 14:30N 37°08' W 008°32'0 0.0
2018-Jun-13 14:00N 37°08' W 008°32'0 0.0
2018-Jun-13 13:30N 37°08' W 008°32'0 0.0
2018-Jun-13 13:01N 37°08' W 008°32'0 0.0
2018-Jun-13 12:30N 37°08' W 008°32'0 0.0
2018-Jun-13 12:00N 37°08' W 008°32'0 0.0
2018-Jun-13 11:30N 37°08' W 008°32'0 0.0
2018-Jun-13 11:00N 37°08' W 008°32'0 0.0
2018-Jun-13 10:30N 37°08' W 008°32'0 0.0
2018-Jun-13 10:00N 37°08' W 008°32'0 0.0
2018-Jun-13 09:30N 37°08' W 008°32'0 0.0
2018-Jun-13 09:00N 37°08' W 008°32'0 0.0
2018-Jun-13 08:30N 37°08' W 008°32'0 0.0
2018-Jun-13 08:00N 37°08' W 008°32'0 0.0
2018-Jun-13 07:30N 37°08' W 008°32'0 0.0
2018-Jun-13 07:00N 37°08' W 008°32'0 0.0
2018-Jun-13 06:30N 37°08' W 008°32'0 0.0
2018-Jun-13 06:00N 37°08' W 008°32'0 0.0
2018-Jun-13 05:30N 37°08' W 008°32'0 0.1
2018-Jun-13 05:00N 37°08' W 008°32'0 0.0
2018-Jun-13 04:30N 37°08' W 008°32'0 0.0
2018-Jun-13 04:00N 37°08' W 008°32'0 0.0
2018-Jun-13 03:30N 37°08' W 008°32'0 0.0
2018-Jun-13 03:00N 37°08' W 008°32'0 0.0
2018-Jun-13 02:30N 37°08' W 008°32'0 0.0
2018-Jun-13 02:00N 37°08' W 008°32'0 0.0
2018-Jun-13 01:30N 37°08' W 008°32'0 0.0
2018-Jun-13 01:00N 37°08' W 008°32'0 0.0
2018-Jun-13 00:30N 37°08' W 008°32'0 0.0
2018-Jun-13 00:00N 37°08' W 008°32'0 0.0
2018-Jun-12 23:30N 37°08' W 008°32'0 0.0
2018-Jun-12 23:00N 37°08' W 008°32'0 0.0
2018-Jun-12 22:30N 37°08' W 008°32'  
Track history (hours):
 
Tides and Currents Weather Stations Pressure Air Temp Water Temp Dewpoint Dewpoint Depression Visibility Wind Speed Wind Dir Waves Ship Positions

Astur

Last reported at 2018-Jun-22 22:13 UTC. Time now 2018-Jun-25 05:33 UTC.
Position N 36°59' W 008°57'.

Length 21 m.

Type: Ship. MMSI: 263275000.

Date/timePositionNaut miles runAvg speedWind from/ knotsBaromVisibWave heightAir tempDewpointWater temp
2018-Jun-22 22:13N 36°59' W 008°57'2 6.9
2018-Jun-22 21:56N 37°01' W 008°55'0 0.3
2018-Jun-22 21:01N 37°01' W 008°56'0 0.5
2018-Jun-22 20:31N 37°00' W 008°55'0 8.3
2018-Jun-22 20:30N 37°00' W 008°56'1 0.0
2018-Jun-21 23:07N 37°01' W 008°55'0 2.0
2018-Jun-21 23:00N 37°01' W 008°56'0 0.0
2018-Jun-21 22:22N 37°01' W 008°56'0 0.0
2018-Jun-21 21:53N 37°01' W 008°56'0 0.0
2018-Jun-21 21:30N 37°01' W 008°56'0 0.0
2018-Jun-21 20:40N 37°01' W 008°56'0 0.0
2018-Jun-21 20:19N 37°01' W 008°56'0 0.0
2018-Jun-21 19:45N 37°01' W 008°56'10 0.7
2018-Jun-21 05:01N 36°58' W 009°08'0 3.1
2018-Jun-21 05:00N 36°58' W 009°08'2 2.9
2018-Jun-21 04:12N 36°56' W 009°08'  
2018-Jun-17 19:02N 37°01' W 008°56'0 0.3
2018-Jun-17 18:36N 37°01' W 008°56'0 0.0
2018-Jun-17 15:09N 37°01' W 008°56'0 0.0
2018-Jun-17 14:48N 37°01' W 008°56'0 0.0
2018-Jun-17 14:29N 37°01' W 008°56'0 0.0
2018-Jun-17 13:58N 37°01' W 008°56'0 0.0
2018-Jun-17 13:23N 37°01' W 008°56'0 0.0
2018-Jun-17 13:00N 37°01' W 008°56'0 0.0
2018-Jun-17 11:35N 37°01' W 008°56'0 0.0
2018-Jun-17 11:23N 37°01' W 008°56'0 0.0
2018-Jun-17 10:50N 37°01' W 008°56'0 0.8
2018-Jun-17 10:20N 37°00' W 008°55'3 8.4
2018-Jun-17 10:00N 36°58' W 008°58'4 8.3
2018-Jun-17 09:31N 36°55' W 009°01'5 0.6
2018-Jun-17 00:54N 36°55' W 009°08'23 1.9
2018-Jun-16 12:31N 36°48' W 008°40'0 2.9
2018-Jun-16 12:27N 36°48' W 008°41'1 2.9
2018-Jun-16 11:58N 36°48' W 008°42'2 0.2
2018-Jun-16 03:07N 36°47' W 008°44'1 2.8
2018-Jun-16 02:45N 36°47' W 008°45'1 2.9
2018-Jun-16 02:28N 36°47' W 008°46'9 2.9
2018-Jun-15 23:33N 36°47' W 008°57'0 2.9
2018-Jun-15 23:24N 36°46' W 008°57'1 0.2
2018-Jun-15 19:43N 36°47' W 008°56'1 2.8
2018-Jun-15 19:25N 36°47' W 008°55'1 2.9
2018-Jun-15 19:00N 36°47' W 008°54'1 2.9
2018-Jun-15 18:29N 36°48' W 008°52'1 2.8
2018-Jun-15 17:58N 36°48' W 008°50'2 2.8
2018-Jun-15 17:19N 36°47' W 008°48'1 2.8
2018-Jun-15 16:52N 36°47' W 008°46'2 2.8
2018-Jun-15 16:20N 36°47' W 008°45'4 1.8
2018-Jun-15 14:20N 36°47' W 008°40'3 2.8
2018-Jun-15 13:18N 36°47' W 008°44'1 3.0
2018-Jun-15 12:58N 36°47' W 008°45'1 2.9
2018-Jun-15 12:28N 36°47' W 008°47'18 1.4
2018-Jun-14 23:16N 36°52' W 009°08'1 2.7
2018-Jun-14 22:58N 36°51' W 009°08'1 2.8
2018-Jun-14 22:30N 36°50' W 009°09'29 2.9
2018-Jun-14 12:37N 36°60' W 008°34'2 8.5
2018-Jun-14 12:26N 37°01' W 008°34'4 8.5
2018-Jun-14 12:00N 37°05' W 008°32'3 6.9
2018-Jun-14 11:30N 37°08' W 008°32'0 0.2
2018-Jun-14 11:00N 37°08' W 008°32'0 0.0
2018-Jun-14 10:23N 37°08' W 008°32'0 0.0
2018-Jun-14 09:59N 37°08' W 008°32'0 0.0
2018-Jun-14 09:26N 37°08' W 008°32'0 0.0
2018-Jun-14 09:00N 37°08' W 008°32'0 0.0
2018-Jun-14 08:30N 37°08' W 008°32'0 0.0
2018-Jun-14 08:00N 37°08' W 008°32'0 0.0
2018-Jun-14 07:30N 37°08' W 008°32'0 0.0
2018-Jun-14 07:00N 37°08' W 008°32'0 0.0
2018-Jun-14 06:30N 37°08' W 008°32'0 0.0
2018-Jun-14 06:00N 37°08' W 008°32'0 0.0
2018-Jun-14 05:30N 37°08' W 008°32'0 0.0
2018-Jun-14 05:00N 37°08' W 008°32'0 0.0
2018-Jun-14 04:30N 37°08' W 008°32'0 0.0
2018-Jun-14 04:00N 37°08' W 008°32'0 0.0
2018-Jun-14 03:30N 37°08' W 008°32'0 0.0
2018-Jun-14 03:00N 37°08' W 008°32'0 0.0
2018-Jun-14 02:30N 37°08' W 008°32'0 0.0
2018-Jun-14 01:59N 37°08' W 008°32'0 0.0
2018-Jun-14 01:30N 37°08' W 008°32'0 0.0
2018-Jun-14 01:00N 37°08' W 008°32'0 0.0
2018-Jun-14 00:30N 37°08' W 008°32'0 0.0
2018-Jun-14 00:00N 37°08' W 008°32'0 0.0
2018-Jun-13 23:30N 37°08' W 008°32'0 0.0
2018-Jun-13 23:00N 37°08' W 008°32'0 0.0
2018-Jun-13 22:30N 37°08' W 008°32'0 0.0
2018-Jun-13 22:01N 37°08' W 008°32'0 0.0
2018-Jun-13 21:30N 37°08' W 008°32'0 0.0
2018-Jun-13 21:00N 37°08' W 008°32'0 0.0
2018-Jun-13 20:30N 37°08' W 008°32'0 0.0
2018-Jun-13 20:00N 37°08' W 008°32'0 0.0
2018-Jun-13 19:30N 37°08' W 008°32'0 0.0
2018-Jun-13 19:00N 37°08' W 008°32'0 0.0
2018-Jun-13 18:31N 37°08' W 008°32'0 0.0
2018-Jun-13 18:00N 37°08' W 008°32'0 0.0
2018-Jun-13 17:30N 37°08' W 008°32'0 0.0
2018-Jun-13 17:00N 37°08' W 008°32'0 0.0
2018-Jun-13 16:30N 37°08' W 008°32'0 0.0
2018-Jun-13 16:00N 37°08' W 008°32'0 0.0
2018-Jun-13 15:30N 37°08' W 008°32'0 0.0
2018-Jun-13 15:00N 37°08' W 008°32'0 0.0
2018-Jun-13 14:30N 37°08' W 008°32'0 0.0
2018-Jun-13 14:00N 37°08' W 008°32'0 0.0
2018-Jun-13 13:30N 37°08' W 008°32'0 0.0
2018-Jun-13 13:01N 37°08' W 008°32'0 0.0
2018-Jun-13 12:30N 37°08' W 008°32'0 0.0
2018-Jun-13 12:00N 37°08' W 008°32'0 0.0
2018-Jun-13 11:30N 37°08' W 008°32'0 0.0
2018-Jun-13 11:00N 37°08' W 008°32'0 0.0
2018-Jun-13 10:30N 37°08' W 008°32'0 0.0
2018-Jun-13 10:00N 37°08' W 008°32'0 0.0
2018-Jun-13 09:30N 37°08' W 008°32'0 0.0
2018-Jun-13 09:00N 37°08' W 008°32'0 0.0
2018-Jun-13 08:30N 37°08' W 008°32'0 0.0
2018-Jun-13 08:00N 37°08' W 008°32'0 0.0
2018-Jun-13 07:30N 37°08' W 008°32'0 0.0
2018-Jun-13 07:00N 37°08' W 008°32'0 0.0
2018-Jun-13 06:30N 37°08' W 008°32'0 0.0
2018-Jun-13 06:00N 37°08' W 008°32'0 0.0
2018-Jun-13 05:30N 37°08' W 008°32'0 0.1
2018-Jun-13 05:00N 37°08' W 008°32'0 0.0
2018-Jun-13 04:30N 37°08' W 008°32'0 0.0
2018-Jun-13 04:00N 37°08' W 008°32'0 0.0
2018-Jun-13 03:30N 37°08' W 008°32'0 0.0
2018-Jun-13 03:00N 37°08' W 008°32'0 0.0
2018-Jun-13 02:30N 37°08' W 008°32'0 0.0
2018-Jun-13 02:00N 37°08' W 008°32'0 0.0
2018-Jun-13 01:30N 37°08' W 008°32'0 0.0
2018-Jun-13 01:00N 37°08' W 008°32'0 0.0
2018-Jun-13 00:30N 37°08' W 008°32'0 0.0
2018-Jun-13 00:00N 37°08' W 008°32'0 0.0
2018-Jun-12 23:30N 37°08' W 008°32'0 0.0
2018-Jun-12 23:00N 37°08' W 008°32'0 0.0
2018-Jun-12 22:30N 37°08' W 008°32'  

Dump ship's entire track history